Time;durP1;ratioP1;P1;durP2;ratioP2;P2;SDS_P1;SDS_P2;PMS_P1;PMS_P2;Temp;Humidity;BMP_temperature;BMP_pressure;BME280_temperature;BME280_humidity;BME280_pressure;Samples;Min_cycle;Max_cycle;Signal;HPM_P1;HPM_P2
2022/02/10 00:07:08;;;;;;;4.37;2.27;;;;;;;2.46;77.87;96217.22;5055097;28;20175;-77
2022/02/10 00:15:41;;;;;;;7.00;2.97;;;;;;;2.44;78.09;96207.97;5053827;28;20254;-78
2022/02/10 00:36:24;;;;;;;2.90;1.83;;;;;;;2.73;76.18;96196.13;5051070;28;20211;-77
2022/02/10 00:38:58;;;;;;;3.57;2.20;;;;;;;2.74;76.54;96200.31;5051384;28;20610;-77
2022/02/10 00:41:24;;;;;;;4.90;1.90;;;;;;;2.71;76.30;96195.38;5051069;28;20225;-77
2022/02/10 00:43:49;;;;;;;2.77;2.00;;;;;;;2.71;75.91;96201.34;5050604;28;20556;-77
2022/02/10 00:46:15;;;;;;;2.87;1.90;;;;;;;2.62;76.81;96194.13;5051086;28;20184;-77
2022/02/10 00:48:40;;;;;;;5.27;2.23;;;;;;;2.66;76.12;96195.66;5034831;28;20277;-77
2022/02/10 00:51:06;;;;;;;2.23;1.87;;;;;;;2.69;76.27;96187.78;5050061;28;20210;-77
2022/02/10 00:53:33;;;;;;;5.00;1.73;;;;;;;2.68;76.13;96185.28;5051439;28;20628;-77
2022/02/10 00:55:58;;;;;;;3.23;2.03;;;;;;;2.74;76.06;96184.94;5050517;28;20561;-77
2022/02/10 00:58:27;;;;;;;3.13;2.23;;;;;;;2.77;75.56;96172.78;5050636;28;20178;-76
2022/02/10 01:24:29;;;;;;;6.23;2.00;;;;;;;2.64;76.46;96171.81;5056171;28;20287;-77
2022/02/10 01:31:00;;;;;;;2.13;1.63;;;;;;;2.62;75.13;96160.81;5035355;28;20236;-77
2022/02/10 01:33:26;;;;;;;4.67;1.63;;;;;;;2.63;74.86;96161.63;5033626;28;20199;-77
2022/02/10 01:35:51;;;;;;;3.67;1.80;;;;;;;2.72;73.85;96158.56;5017706;28;20193;-77
2022/02/10 01:38:17;;;;;;;6.93;1.60;;;;;;;2.78;73.25;96166.75;5034483;28;20569;-77
2022/02/10 02:04:52;;;;;;;2.23;1.40;;;;;;;2.82;71.77;96128.91;5035294;28;20182;-77
2022/02/10 02:07:26;;;;;;;2.93;1.27;;;;;;;2.79;72.01;96131.66;5034379;28;20174;-76
2022/02/10 02:09:52;;;;;;;3.83;1.50;;;;;;;2.83;72.06;96128.84;5018862;28;20200;-76
2022/02/10 02:12:17;;;;;;;3.20;1.60;;;;;;;2.74;72.52;96134.50;5035658;28;20183;-78
2022/02/10 02:14:42;;;;;;;3.63;1.60;;;;;;;2.66;72.76;96115.31;5037403;28;20215;-78
2022/02/10 02:17:07;;;;;;;4.03;1.77;;;;;;;2.59;73.16;96116.56;5049547;28;20194;-77
2022/02/10 02:19:33;;;;;;;1.70;1.30;;;;;;;2.65;72.52;96111.06;5034688;28;20273;-77
2022/02/10 02:22:03;;;;;;;4.27;1.70;;;;;;;2.58;72.85;96112.34;5032848;28;20184;-77
2022/02/10 02:24:29;;;;;;;2.77;1.37;;;;;;;2.49;72.83;96109.38;5033439;28;20183;-77
2022/02/10 02:27:00;;;;;;;4.90;1.60;;;;;;;2.38;73.31;96104.00;5017242;28;20187;-78
2022/02/10 02:29:37;;;;;;;1.47;1.10;;;;;;;2.31;73.83;96102.72;5033534;28;20178;-77
2022/02/10 02:32:13;;;;;;;3.10;1.40;;;;;;;2.24;74.21;96103.94;5032832;28;20232;-77
2022/02/10 02:35:19;;;;;;;2.67;1.80;;;;;;;2.18;74.69;96105.09;5034825;28;20210;-77
2022/02/10 02:38:05;;;;;;;2.77;1.60;;;;;;;2.05;75.50;96099.00;5031891;28;20178;-77
2022/02/10 03:07:48;;;;;;;3.60;1.60;;;;;;;1.76;76.61;96079.22;5033690;28;20178;-78
2022/02/10 03:12:40;;;;;;;2.50;1.50;;;;;;;1.79;76.75;96079.91;5031750;28;20221;-77
2022/02/10 03:15:12;;;;;;;2.77;1.57;;;;;;;1.75;77.05;96077.56;5032170;28;20272;-77
2022/02/10 03:17:46;;;;;;;3.07;1.67;;;;;;;1.79;76.50;96069.66;5032585;28;20640;-78
2022/02/10 03:20:30;;;;;;;3.10;1.50;;;;;;;1.73;76.71;96069.13;5016790;28;20733;-78
2022/02/10 03:59:51;;;;;;;2.07;1.30;;;;;;;1.73;76.93;96080.22;5017886;28;20297;-78
2022/02/10 04:06:48;;;;;;;3.10;1.80;;;;;;;2.13;73.45;96083.22;5032521;28;20719;-77
2022/02/10 04:12:20;;;;;;;1.40;1.10;;;;;;;2.03;74.43;96077.75;5031208;28;20257;-77
2022/02/10 04:14:51;;;;;;;2.77;1.60;;;;;;;1.89;75.08;96078.50;5031344;28;20218;-78
2022/02/10 04:20:47;;;;;;;2.77;1.70;;;;;;;1.78;75.65;96078.25;5031808;28;20197;-78
2022/02/10 04:30:51;;;;;;;3.07;1.80;;;;;;;1.53;76.49;96062.53;5031621;28;20213;-78
2022/02/10 04:42:51;;;;;;;3.53;1.40;;;;;;;1.50;76.43;96058.38;5033985;28;20742;-78
2022/02/10 05:07:39;;;;;;;2.37;1.20;;;;;;;3.21;68.76;96058.28;5040421;28;20551;-77
2022/02/10 05:21:58;;;;;;;4.67;1.77;;;;;;;4.21;67.62;96059.00;5053460;28;20206;-77
2022/02/10 05:35:32;;;;;;;3.50;1.77;;;;;;;4.51;67.90;96051.09;5037057;28;20301;-79
2022/02/10 05:38:06;;;;;;;4.10;2.07;;;;;;;4.42;68.73;96051.69;5029055;28;20613;-78
2022/02/10 05:48:49;;;;;;;3.37;2.53;;;;;;;4.39;69.02;96059.59;5045650;28;20194;-78
2022/02/10 05:51:50;;;;;;;4.67;2.00;;;;;;;4.29;69.68;96058.53;5023845;28;20781;-79
2022/02/10 05:57:12;;;;;;;4.23;2.03;;;;;;;4.41;69.44;96068.03;5035862;28;20186;-80
2022/02/10 05:59:57;;;;;;;11.60;5.67;;;;;;;4.40;69.60;96056.91;5033466;28;20190;-79
2022/02/10 06:49:10;;;;;;;6.10;3.10;;;;;;;3.61;75.26;96054.97;5055427;28;20631;-78
2022/02/10 06:54:18;;;;;;;4.37;2.87;;;;;;;3.63;76.03;96060.84;5054439;28;20205;-78
2022/02/10 06:57:48;;;;;;;6.37;2.77;;;;;;;3.69;76.21;96065.59;5055105;28;20647;-79
2022/02/10 07:02:54;;;;;;;4.07;2.63;;;;;;;3.53;76.55;96062.31;5040325;28;20242;-77
2022/02/10 07:10:46;;;;;;;3.13;2.03;;;;;;;3.38;77.66;96060.69;5053991;28;20223;-79
2022/02/10 07:16:21;;;;;;;8.87;3.60;;;;;;;3.51;77.28;96058.19;5055415;28;20187;-78
2022/02/10 07:51:58;;;;;;;5.67;3.00;;;;;;;4.39;73.79;96044.16;5053420;28;20205;-79
2022/02/10 08:52:49;;;;;;;8.83;4.33;;;;;;;6.16;69.77;96088.97;5051712;28;20224;-79
2022/02/10 08:54:56;;;;;;;9.13;3.80;;;;;;;6.16;69.75;96092.34;5053383;28;20213;-79
2022/02/10 09:05:44;;;;;;;6.17;3.67;;;;;;;6.29;69.71;96078.63;5051784;28;20181;-79
2022/02/10 09:22:24;;;;;;;7.17;3.90;;;;;;;6.56;68.99;96105.03;5051686;28;20237;-79
2022/02/10 09:51:11;;;;;;;6.37;4.20;;;;;;;6.49;70.13;96107.22;5056296;28;20197;-79
2022/02/10 10:00:32;;;;;;;9.53;3.87;;;;;;;6.37;70.64;96108.09;5056774;28;20192;-78
2022/02/10 10:03:18;;;;;;;10.20;4.87;;;;;;;6.52;70.88;96131.97;5046014;28;20205;-78
2022/02/10 10:05:57;;;;;;;8.00;4.70;;;;;;;6.46;70.67;96117.78;5040766;28;20181;-78
2022/02/10 10:14:10;;;;;;;11.33;4.90;;;;;;;6.57;71.13;96134.25;5056190;28;20201;-79
2022/02/10 10:50:50;;;;;;;9.73;5.27;;;;;;;6.98;70.67;96142.44;5047967;28;20260;-79
2022/02/10 10:53:35;;;;;;;12.90;6.20;;;;;;;7.00;70.86;96148.31;5036219;28;20300;-78
2022/02/10 10:56:12;;;;;;;8.90;6.40;;;;;;;6.88;71.55;96144.00;5053593;28;20220;-78
2022/02/10 11:38:30;;;;;;;9.47;6.47;;;;;;;5.85;78.78;96122.00;5045143;28;20284;-78
2022/02/10 11:43:49;;;;;;;17.70;8.93;;;;;;;5.80;79.57;96123.22;5054164;28;20185;-79
2022/02/10 13:26:13;;;;;;;12.03;6.97;;;;;;;4.66;87.19;96111.84;5055240;28;20181;-77
2022/02/10 13:48:16;;;;;;;10.67;7.63;;;;;;;4.50;88.36;96111.16;5052063;28;20558;-77
2022/02/10 14:10:37;;;;;;;13.20;8.17;;;;;;;4.56;88.13;96128.78;5032012;28;20563;-78
2022/02/10 14:14:57;;;;;;;13.83;7.33;;;;;;;4.48;87.84;96120.72;5031092;28;20817;-77
2022/02/10 14:17:35;;;;;;;14.53;8.23;;;;;;;4.53;87.72;96129.81;5032404;28;20306;-79
2022/02/10 14:20:12;;;;;;;12.20;7.87;;;;;;;4.54;87.80;96125.50;5032861;28;20288;-79
2022/02/10 14:22:50;;;;;;;10.17;7.10;;;;;;;4.54;86.88;96126.31;5032520;28;20727;-79
2022/02/10 14:27:59;;;;;;;12.30;8.13;;;;;;;4.43;87.28;96128.75;5034410;28;20248;-79
2022/02/10 14:30:24;;;;;;;14.43;7.23;;;;;;;4.37;86.85;96125.72;5052643;28;20667;-79
2022/02/10 14:32:50;;;;;;;10.50;7.53;;;;;;;4.41;86.88;96134.88;5051852;28;20204;-79
2022/02/10 14:35:23;;;;;;;11.97;8.00;;;;;;;4.25;87.66;96120.44;5054595;28;20181;-78
2022/02/10 15:21:43;;;;;;;13.97;7.20;;;;;;;4.11;85.49;96120.44;5052675;28;20204;-79
2022/02/10 15:29:07;;;;;;;7.67;5.40;;;;;;;4.09;81.57;96118.91;5053364;28;20268;-81
2022/02/10 15:49:22;;;;;;;7.57;5.67;;;;;;;4.17;78.34;96104.66;5054421;28;20212;-79
2022/02/10 16:10:54;;;;;;;4.03;3.50;;;;;;;4.04;77.36;96090.88;5052920;28;20235;-78
2022/02/10 16:18:32;;;;;;;10.00;4.07;;;;;;;4.11;76.92;96094.75;5053575;28;20611;-78
2022/02/10 16:21:00;;;;;;;4.27;3.67;;;;;;;4.13;76.86;96092.06;5037353;28;20209;-80
2022/02/10 16:23:29;;;;;;;7.50;4.37;;;;;;;4.09;77.40;96088.88;5052657;28;20178;-80
2022/02/10 16:28:44;;;;;;;8.57;6.17;;;;;;;4.13;76.73;96082.59;5051683;28;20218;-79
2022/02/10 16:31:15;;;;;;;6.37;4.83;;;;;;;4.09;76.17;96083.72;5035308;28;20201;-78
2022/02/10 16:33:43;;;;;;;7.00;4.23;;;;;;;4.07;76.41;96084.75;5050230;28;20199;-78
2022/02/10 16:36:16;;;;;;;5.70;3.57;;;;;;;4.08;75.94;96078.69;5033961;28;20242;-77
2022/02/10 16:38:42;;;;;;;6.37;5.57;;;;;;;4.10;76.10;96079.41;5053872;28;20189;-78
2022/02/10 16:41:07;;;;;;;11.43;7.57;;;;;;;4.09;76.01;96088.88;5053181;28;20190;-78
2022/02/10 16:43:33;;;;;;;18.17;13.17;;;;;;;4.11;75.75;96081.88;5055581;28;20178;-79
2022/02/10 16:45:59;;;;;;;8.90;7.90;;;;;;;4.09;75.19;96078.59;5038611;28;20189;-81
2022/02/10 16:48:24;;;;;;;8.73;7.00;;;;;;;4.07;75.53;96074.47;5055892;28;20181;-79
2022/02/10 16:50:49;;;;;;;5.73;4.20;;;;;;;4.10;75.64;96075.09;5054349;28;20269;-77
2022/02/10 16:53:19;;;;;;;4.77;3.90;;;;;;;4.11;75.85;96075.91;5054194;28;20657;-78
2022/02/10 16:56:21;;;;;;;4.80;4.00;;;;;;;4.10;76.13;96080.25;5054921;28;20261;-78
2022/02/10 17:01:35;;;;;;;5.83;4.20;;;;;;;4.02;76.11;96087.59;5054332;28;20680;-78
2022/02/10 17:15:28;;;;;;;4.60;3.87;;;;;;;3.98;77.15;96093.84;5053894;28;20211;-77
2022/02/10 17:20:24;;;;;;;6.07;5.47;;;;;;;3.89;77.10;96100.38;5053887;28;20202;-77
2022/02/10 17:25:36;;;;;;;11.90;8.87;;;;;;;3.87;76.70;96096.22;5054636;28;20557;-77
2022/02/10 17:28:05;;;;;;;13.77;10.83;;;;;;;3.93;76.87;96090.72;5052921;28;20316;-77
2022/02/10 17:33:28;;;;;;;4.70;3.80;;;;;;;3.85;76.12;96092.94;5043446;28;20187;-77
2022/02/10 17:46:41;;;;;;;5.17;3.77;;;;;;;3.80;76.36;96087.25;5042423;28;20263;-78
2022/02/10 17:51:59;;;;;;;9.03;6.67;;;;;;;3.85;76.30;96082.66;5053265;28;20700;-77
2022/02/10 17:54:25;;;;;;;6.60;5.83;;;;;;;3.86;76.03;96081.75;5037666;28;20301;-77
2022/02/10 17:56:51;;;;;;;5.73;4.47;;;;;;;3.85;76.01;96087.81;5053601;28;20217;-78
2022/02/10 17:59:17;;;;;;;7.03;5.43;;;;;;;3.82;76.14;96086.25;5052447;28;20201;-77
2022/02/10 18:01:44;;;;;;;14.00;9.17;;;;;;;3.82;76.21;96081.13;5050002;28;20207;-77
2022/02/10 18:04:10;;;;;;;11.20;8.13;;;;;;;3.79;76.17;96081.28;5034533;28;20174;-78
2022/02/10 18:06:41;;;;;;;7.70;5.40;;;;;;;3.77;76.39;96083.13;5053432;28;20182;-79
2022/02/10 18:14:30;;;;;;;12.40;10.53;;;;;;;3.76;76.80;96088.34;5053809;28;20210;-78
2022/02/10 18:17:07;;;;;;;7.70;6.23;;;;;;;3.67;76.85;96088.00;5054298;28;20170;-78
2022/02/10 18:19:39;;;;;;;7.53;4.87;;;;;;;3.65;76.79;96078.75;5038949;28;20220;-78
2022/02/10 18:22:25;;;;;;;6.20;4.60;;;;;;;3.68;76.21;96089.66;5054363;28;20651;-79
2022/02/10 18:25:18;;;;;;;6.43;4.13;;;;;;;3.63;76.90;96083.16;5053545;28;20184;-78
2022/02/10 18:33:20;;;;;;;5.40;4.07;;;;;;;3.39;77.85;96075.16;5052154;28;20205;-78
2022/02/10 19:08:27;;;;;;;6.70;4.70;;;;;;;3.23;79.53;96075.22;5045849;28;20207;-78
2022/02/10 19:10:58;;;;;;;4.60;4.10;;;;;;;3.19;79.49;96081.47;5048846;28;20204;-78
2022/02/10 19:13:23;;;;;;;5.83;4.20;;;;;;;3.24;79.23;96070.94;5047946;28;20290;-77
2022/02/10 19:15:57;;;;;;;6.50;4.33;;;;;;;3.25;79.47;96072.56;5048449;28;20247;-79
2022/02/10 19:18:22;;;;;;;11.00;5.77;;;;;;;3.25;79.25;96075.13;5029384;28;20209;-77
2022/02/10 19:20:47;;;;;;;11.80;6.50;;;;;;;3.22;79.33;96071.03;5028883;28;20240;-77
2022/02/10 19:23:13;;;;;;;7.20;5.00;;;;;;;3.23;79.77;96066.72;5011646;28;20191;-78
2022/02/10 19:25:39;;;;;;;6.83;4.33;;;;;;;3.23;79.89;96061.56;5044433;28;20643;-77
2022/02/10 19:28:11;;;;;;;8.20;5.40;;;;;;;3.27;79.73;96060.47;5040108;28;20182;-77
2022/02/10 19:30:38;;;;;;;6.73;4.90;;;;;;;3.31;79.42;96054.25;5013691;28;20313;-77
2022/02/10 19:33:08;;;;;;;6.43;4.43;;;;;;;3.28;79.49;96049.31;5013764;28;20175;-77
2022/02/10 19:35:39;;;;;;;7.03;4.30;;;;;;;3.28;79.42;96045.00;5031466;28;20230;-79
2022/02/10 19:38:05;;;;;;;4.47;4.03;;;;;;;3.26;79.31;96046.81;5031776;28;20206;-79
2022/02/10 19:40:34;;;;;;;6.07;4.37;;;;;;;3.26;79.54;96045.97;5015105;28;20206;-77
2022/02/10 19:42:59;;;;;;;12.53;8.53;;;;;;;3.22;80.02;96041.97;5031027;28;20175;-77
2022/02/10 19:45:25;;;;;;;8.60;6.17;;;;;;;3.18;80.09;96041.34;5031379;28;20174;-78
2022/02/10 19:47:50;;;;;;;8.80;5.80;;;;;;;3.14;79.90;96039.84;5031097;28;20209;-77
2022/02/10 19:50:22;;;;;;;7.23;5.20;;;;;;;3.11;80.28;96040.84;5030596;28;20222;-77
2022/02/10 19:52:49;;;;;;;6.73;4.90;;;;;;;3.07;80.26;96044.50;5014446;28;20174;-78
2022/02/10 19:55:20;;;;;;;10.57;5.50;;;;;;;3.01;80.81;96041.50;5051195;28;20278;-77
2022/02/10 19:57:46;;;;;;;5.93;4.80;;;;;;;2.99;80.70;96035.59;5034597;28;20190;-77
2022/02/10 20:00:17;;;;;;;9.00;5.70;;;;;;;2.96;81.02;96033.22;5034016;28;20200;-77
2022/02/10 20:02:43;;;;;;;8.67;5.57;;;;;;;2.92;81.45;96040.28;5050866;28;20554;-79
2022/02/10 20:05:08;;;;;;;6.73;5.00;;;;;;;2.90;81.42;96033.56;5034519;28;20178;-76
2022/02/10 20:07:37;;;;;;;7.00;5.10;;;;;;;2.91;81.82;96037.78;5046818;28;20580;-77
2022/02/10 20:10:07;;;;;;;7.13;5.43;;;;;;;2.89;82.06;96031.94;5038072;28;20210;-76
2022/02/10 20:12:32;;;;;;;10.83;7.47;;;;;;;2.85;82.18;96031.28;5043647;28;20183;-77
2022/02/10 20:14:58;;;;;;;23.27;11.53;;;;;;;2.86;82.66;96032.94;5049086;28;20215;-76
2022/02/10 20:17:23;;;;;;;15.97;9.80;;;;;;;2.86;83.03;96032.13;5029796;28;20276;-77
2022/02/10 20:19:48;;;;;;;18.73;10.17;;;;;;;2.84;83.08;96030.47;5030237;28;20719;-77
2022/02/10 20:22:14;;;;;;;14.03;8.57;;;;;;;2.63;84.20;96028.28;5024956;28;20257;-79
2022/02/10 20:24:40;;;;;;;12.47;8.03;;;;;;;2.60;84.79;96025.91;5021818;28;20201;-79
2022/02/10 20:27:05;;;;;;;11.33;7.40;;;;;;;2.59;85.62;96029.41;5021298;28;20179;-79
2022/02/10 20:29:31;;;;;;;10.20;6.50;;;;;;;2.68;85.12;96018.63;5037525;28;20201;-79
2022/02/10 20:31:56;;;;;;;10.23;7.63;;;;;;;2.59;85.24;96014.00;5024374;28;20249;-79
2022/02/10 20:34:23;;;;;;;7.23;5.83;;;;;;;2.59;84.91;96006.31;5031872;28;20304;-80
2022/02/10 20:36:48;;;;;;;6.33;4.77;;;;;;;2.61;84.92;96002.75;5024498;28;20718;-79
2022/02/10 20:39:20;;;;;;;6.77;4.87;;;;;;;2.76;84.36;96001.88;5037320;28;20224;-79
2022/02/10 20:41:50;;;;;;;8.60;5.00;;;;;;;2.77;84.13;96003.50;5032334;28;20634;-79
2022/02/10 20:44:15;;;;;;;6.07;5.47;;;;;;;2.80;83.83;95997.38;5048525;28;20272;-79
2022/02/10 20:46:42;;;;;;;7.47;5.63;;;;;;;2.83;84.63;96002.34;5031700;28;20191;-80
2022/02/10 20:49:15;;;;;;;6.30;5.27;;;;;;;2.86;84.30;96007.28;5048774;28;20178;-79
2022/02/10 20:51:41;;;;;;;9.37;5.60;;;;;;;2.88;84.51;96004.63;5032618;28;20340;-80
2022/02/10 20:54:06;;;;;;;8.50;5.17;;;;;;;2.88;83.95;96000.31;5011947;28;20316;-80
2022/02/10 20:56:31;;;;;;;9.60;5.57;;;;;;;2.94;84.26;95994.00;5046335;28;20231;-80
2022/02/10 20:58:59;;;;;;;7.23;5.37;;;;;;;2.94;84.14;95994.84;5049928;28;20557;-80
2022/02/10 21:01:25;;;;;;;10.83;6.57;;;;;;;2.95;84.66;95995.66;5051286;28;20200;-80
2022/02/10 21:03:50;;;;;;;16.83;8.40;;;;;;;2.97;84.40;95997.22;5033815;28;20708;-79
2022/02/10 21:09:06;;;;;;;13.37;8.27;;;;;;;2.98;84.81;96009.13;5050946;28;20356;-79
2022/02/10 21:11:32;;;;;;;11.23;7.23;;;;;;;3.00;84.75;96009.84;5035041;28;20212;-79
2022/02/10 21:13:58;;;;;;;13.37;8.90;;;;;;;3.05;85.25;96007.03;5051427;28;20647;-79
2022/02/10 21:16:25;;;;;;;9.27;7.00;;;;;;;3.08;85.01;96001.69;5051071;28;20178;-79
2022/02/10 21:18:51;;;;;;;10.70;5.80;;;;;;;3.12;85.21;95998.06;5050932;28;20266;-80
2022/02/10 21:21:17;;;;;;;6.70;4.83;;;;;;;3.16;84.78;95996.94;5050779;28;20250;-79
2022/02/10 21:23:57;;;;;;;8.57;5.23;;;;;;;3.16;85.02;95991.81;5036426;28;20184;-79
2022/02/10 21:26:29;;;;;;;7.63;4.43;;;;;;;3.23;85.22;95984.56;5038875;28;20178;-78
2022/02/10 21:28:59;;;;;;;4.47;4.03;;;;;;;3.24;85.03;95991.34;5054478;28;20187;-78
2022/02/10 21:31:24;;;;;;;5.67;3.90;;;;;;;3.24;85.69;95993.91;5053916;28;20200;-78
2022/02/10 21:34:03;;;;;;;6.90;4.33;;;;;;;3.25;85.57;95993.00;5054628;28;20287;-78
2022/02/10 21:37:01;;;;;;;5.50;3.87;;;;;;;3.24;85.55;95996.50;5054791;28;20185;-78
2022/02/10 21:55:20;;;;;;;5.17;3.93;;;;;;;3.35;86.23;95968.41;5064030;28;20228;-79
2022/02/10 22:00:38;;;;;;;5.43;4.20;;;;;;;3.42;86.04;95956.88;5066726;28;20191;-79
2022/02/10 22:03:31;;;;;;;7.13;4.13;;;;;;;3.39;86.41;95950.19;5065233;28;20555;-79
2022/02/10 22:06:15;;;;;;;6.33;4.10;;;;;;;3.42;85.85;95954.31;5065182;28;20190;-79
2022/02/10 22:09:15;;;;;;;6.97;3.90;;;;;;;3.48;85.72;95951.38;5065405;28;20186;-79
2022/02/10 22:20:09;;;;;;;5.53;4.07;;;;;;;3.56;84.87;95956.03;5053083;28;20876;-78
2022/02/10 22:22:49;;;;;;;5.53;3.77;;;;;;;3.57;85.04;95949.97;5036613;28;20180;-79
2022/02/10 22:25:15;;;;;;;6.23;4.30;;;;;;;3.56;84.65;95946.59;5052832;28;20173;-78
2022/02/10 22:27:45;;;;;;;6.57;3.73;;;;;;;3.58;85.12;95939.59;5053130;28;20198;-78
2022/02/10 22:30:19;;;;;;;5.30;4.03;;;;;;;3.58;84.91;95946.47;5036938;28;20209;-78
2022/02/10 22:32:53;;;;;;;7.90;4.17;;;;;;;3.57;84.98;95943.09;5052235;28;20721;-79
2022/02/10 22:35:19;;;;;;;12.97;6.93;;;;;;;3.58;84.99;95946.47;5053022;28;20198;-79
2022/02/10 22:37:46;;;;;;;13.23;7.53;;;;;;;3.59;84.94;95943.81;5035900;28;20283;-79
2022/02/10 22:40:35;;;;;;;8.57;4.80;;;;;;;3.59;84.67;95940.41;5052449;28;20693;-78
2022/02/10 22:43:00;;;;;;;7.17;4.23;;;;;;;3.61;84.91;95943.72;5053268;28;20189;-78
2022/02/10 22:45:25;;;;;;;6.07;4.07;;;;;;;3.66;84.65;95939.94;5035938;28;20182;-78
2022/02/10 22:47:50;;;;;;;6.47;4.83;;;;;;;3.60;84.92;95940.31;5052447;28;20190;-78
2022/02/10 22:50:15;;;;;;;6.10;4.77;;;;;;;3.60;85.01;95942.88;5036053;28;20217;-78
2022/02/10 22:52:41;;;;;;;5.97;3.60;;;;;;;3.56;84.86;95943.19;5052010;28;20648;-78
2022/02/10 22:55:06;;;;;;;7.67;4.53;;;;;;;3.57;84.88;95942.28;5052278;28;20205;-78
2022/02/10 22:57:32;;;;;;;8.57;5.17;;;;;;;3.55;85.23;95944.13;5051700;28;20191;-78
2022/02/10 23:00:02;;;;;;;8.07;4.50;;;;;;;3.53;85.14;95943.38;5052357;28;20667;-78
2022/02/10 23:02:27;;;;;;;6.30;4.03;;;;;;;3.54;85.83;95950.19;5035620;28;20270;-78
2022/02/10 23:04:52;;;;;;;6.30;3.87;;;;;;;3.50;85.55;95936.69;5052122;28;20182;-78
2022/02/10 23:07:18;;;;;;;42.90;19.37;;;;;;;3.52;85.75;95939.16;5053463;28;20183;-79
2022/02/10 23:12:09;;;;;;;7.57;5.83;;;;;;;3.50;85.94;95938.44;5051533;28;20299;-79
2022/02/10 23:14:34;;;;;;;7.40;5.13;;;;;;;3.50;85.89;95936.69;5035148;28;20211;-78
2022/02/10 23:17:00;;;;;;;6.13;4.43;;;;;;;3.51;85.89;95942.63;5035405;28;20663;-79
2022/02/10 23:19:25;;;;;;;7.17;5.23;;;;;;;3.50;86.77;95933.28;5053291;28;20646;-79
2022/02/10 23:21:51;;;;;;;11.70;5.70;;;;;;;3.51;86.38;95935.75;5034706;28;20251;-79
2022/02/10 23:24:16;;;;;;;8.50;4.47;;;;;;;3.52;86.64;95937.41;5052073;28;20587;-78
2022/02/10 23:26:41;;;;;;;6.93;4.70;;;;;;;3.54;87.11;95934.75;5034033;28;20177;-79
2022/02/10 23:29:07;;;;;;;8.17;5.37;;;;;;;3.54;87.33;95927.88;5051804;28;20215;-78
2022/02/10 23:31:32;;;;;;;8.87;5.30;;;;;;;3.55;87.62;95939.81;5051721;28;20200;-79
2022/02/10 23:34:01;;;;;;;7.63;4.97;;;;;;;3.62;87.37;95940.22;5035232;28;20199;-79
2022/02/10 23:36:44;;;;;;;8.20;5.33;;;;;;;3.68;87.41;95940.66;5052046;28;20197;-78
2022/02/10 23:39:18;;;;;;;7.60;5.17;;;;;;;3.64;87.48;95944.38;5037619;28;20194;-78
2022/02/10 23:44:36;;;;;;;8.40;5.30;;;;;;;3.65;87.36;95953.72;5052223;28;20208;-78
2022/02/10 23:47:03;;;;;;;6.80;5.07;;;;;;;3.63;87.56;95958.13;5051503;28;20182;-78
2022/02/10 23:49:31;;;;;;;10.77;5.30;;;;;;;3.61;87.65;95941.97;5035150;28;20189;-78
2022/02/10 23:52:00;;;;;;;9.17;6.03;;;;;;;3.61;88.02;95936.00;5034681;28;20738;-79
2022/02/10 23:54:28;;;;;;;9.50;6.07;;;;;;;3.58;88.31;95942.16;5051631;28;20202;-78
2022/02/10 23:57:03;;;;;;;8.70;5.60;;;;;;;3.59;88.11;95930.97;5051788;28;20181;-78
2022/02/10 23:59:43;;;;;;;8.60;4.90;;;;;;;3.56;88.55;95933.75;5036500;28;20219;-79
